createdAt,value
2022-08-17T00:00:55.335Z,15.75
2022-08-17T00:01:29.392Z,15.75
2022-08-17T00:02:34.407Z,15.71
2022-08-17T00:03:27.032Z,15.73
2022-08-17T00:04:24.520Z,15.77
2022-08-17T00:05:24.507Z,15.67
2022-08-17T00:06:24.481Z,15.68
2022-08-17T00:07:24.229Z,15.67
2022-08-17T00:08:24.479Z,15.73
2022-08-17T00:09:24.489Z,15.62
2022-08-17T00:10:23.950Z,15.67
2022-08-17T00:11:24.463Z,15.7
2022-08-17T00:12:48.104Z,15.65
2022-08-17T00:13:24.445Z,15.68
2022-08-17T00:14:24.435Z,15.63
2022-08-17T00:15:23.929Z,15.63
2022-08-17T00:16:57.864Z,15.56
2022-08-17T00:17:24.158Z,15.53
2022-08-17T00:19:12.157Z,15.44
2022-08-17T00:19:24.410Z,15.53
2022-08-17T00:20:35.568Z,15.55
2022-08-17T00:22:29.681Z,15.51
2022-08-17T00:22:45.080Z,15.55
2022-08-17T00:23:54.004Z,15.51
2022-08-17T00:24:44.996Z,15.53
2022-08-17T00:25:44.989Z,15.44
2022-08-17T00:26:49.810Z,15.38
2022-08-17T00:27:44.721Z,15.43
2022-08-17T00:28:44.912Z,15.4
2022-08-17T00:29:44.966Z,15.49
2022-08-17T00:30:57.419Z,15.44
2022-08-17T00:31:44.700Z,15.45
2022-08-17T00:33:20.926Z,15.43
2022-08-17T00:33:44.952Z,15.43
2022-08-17T00:34:44.929Z,15.38
2022-08-17T00:35:44.925Z,15.38
2022-08-17T00:36:44.660Z,15.41
2022-08-17T00:37:44.657Z,15.4
2022-08-17T00:38:44.645Z,15.35
2022-08-17T00:39:44.864Z,15.38
2022-08-17T00:40:50.208Z,15.37
2022-08-17T00:41:47.209Z,15.38
2022-08-17T00:42:44.697Z,15.33
2022-08-17T00:43:44.869Z,15.38
2022-08-17T00:44:44.350Z,15.35
2022-08-17T00:45:45.412Z,15.44
2022-08-17T00:46:44.849Z,15.33
2022-08-17T00:47:44.585Z,15.38
2022-08-17T00:48:44.826Z,15.33
2022-08-17T00:49:45.331Z,15.25
2022-08-17T00:50:44.571Z,15.3
2022-08-17T00:51:44.303Z,15.31
2022-08-17T00:52:44.623Z,15.25
2022-08-17T00:53:44.562Z,15.27
2022-08-17T00:54:47.111Z,15.22
2022-08-17T00:55:44.533Z,15.22
2022-08-17T00:56:44.781Z,15.2
2022-08-17T00:57:44.523Z,15.23
2022-08-17T00:58:44.517Z,15.2
2022-08-17T00:59:44.762Z,15.25
2022-08-17T01:00:44.999Z,15.16
2022-08-17T01:01:44.284Z,15.12
2022-08-17T01:02:47.667Z,15.12
2022-08-17T01:03:44.530Z,15.1
2022-08-17T01:04:44.723Z,15.1
2022-08-17T01:05:47.506Z,15.22
2022-08-17T01:06:44.963Z,15.12
2022-08-17T01:07:44.710Z,15.13
2022-08-17T01:08:44.192Z,15.18
2022-08-17T01:09:44.693Z,15.12
2022-08-17T01:11:05.967Z,15.01
2022-08-17T01:11:44.421Z,15.08
2022-08-17T01:12:44.506Z,15.16
2022-08-17T01:13:46.123Z,15.05
2022-08-17T01:14:44.651Z,15.05
2022-08-17T01:15:48.588Z,15.08
2022-08-17T01:16:44.649Z,15.04
2022-08-17T01:17:44.383Z,15.1
2022-08-17T01:18:44.640Z,15.07
2022-08-17T01:19:44.615Z,15.07
2022-08-17T01:20:53.101Z,15.04
2022-08-17T01:21:44.090Z,15.07
2022-08-17T01:22:44.443Z,15.07
2022-08-17T01:23:44.600Z,15.07
2022-08-17T01:24:44.581Z,15.07
2022-08-17T01:25:44.063Z,15.01
2022-08-17T01:26:44.584Z,15.04
2022-08-17T01:27:44.051Z,15.05
2022-08-17T01:29:00.322Z,15.02
2022-08-17T01:29:44.291Z,14.98
2022-08-17T01:31:02.639Z,14.98
2022-08-17T01:31:44.530Z,15.07
2022-08-17T01:32:44.616Z,15.02
2022-08-17T01:33:44.523Z,15.07
2022-08-17T01:34:54.576Z,15
2022-08-17T01:35:44.249Z,15.02
2022-08-17T01:36:44.595Z,14.97
2022-08-17T01:37:44.496Z,14.94
2022-08-17T01:38:44.231Z,15.01
2022-08-17T01:39:44.784Z,15.07
2022-08-17T01:40:44.472Z,15.01
2022-08-17T01:41:44.470Z,14.97
2022-08-17T01:42:44.663Z,14.95
2022-08-17T01:43:44.448Z,14.98
2022-08-17T01:44:45.176Z,14.89
2022-08-17T01:45:45.167Z,14.87
2022-08-17T01:46:45.426Z,14.86
2022-08-17T01:47:45.437Z,14.83
2022-08-17T01:48:45.397Z,14.85
2022-08-17T01:49:45.144Z,14.83
2022-08-17T01:50:45.386Z,14.82
2022-08-17T01:51:45.132Z,14.79
2022-08-17T01:52:45.252Z,14.75
2022-08-17T01:53:45.386Z,14.8
2022-08-17T01:54:45.115Z,14.87
2022-08-17T01:55:45.350Z,14.74
2022-08-17T01:56:47.283Z,14.75
2022-08-17T01:57:45.337Z,14.75
2022-08-17T01:58:45.073Z,14.75
2022-08-17T01:59:45.068Z,14.69
2022-08-17T02:01:05.512Z,14.69
2022-08-17T02:01:45.026Z,14.66
2022-08-17T02:02:45.466Z,14.63
2022-08-17T02:04:03.742Z,14.63
2022-08-17T02:04:44.775Z,14.64
2022-08-17T02:05:44.770Z,14.69
2022-08-17T02:06:58.136Z,14.66
2022-08-17T02:08:04.687Z,14.67
2022-08-17T02:09:07.926Z,14.69
2022-08-17T02:09:55.037Z,14.64
2022-08-17T02:10:51.616Z,14.71
2022-08-17T02:11:46.201Z,14.66
2022-08-17T02:12:45.513Z,14.63
2022-08-17T02:14:45.238Z,14.57
2022-08-17T02:15:45.481Z,14.52
2022-08-17T02:16:45.216Z,14.49
2022-08-17T02:17:45.211Z,14.63
2022-08-17T02:18:45.456Z,14.53
2022-08-17T02:19:45.452Z,14.48
2022-08-17T02:20:47.279Z,14.52
2022-08-17T02:21:45.436Z,14.51
2022-08-17T02:22:45.397Z,14.42
2022-08-17T02:23:45.419Z,14.49
2022-08-17T02:25:05.201Z,14.57
2022-08-17T02:25:45.152Z,14.51
2022-08-17T02:26:45.398Z,14.52
2022-08-17T02:27:45.135Z,14.46
2022-08-17T02:28:44.867Z,14.45
2022-08-17T02:29:45.136Z,14.44
2022-08-17T02:31:07.089Z,14.33
2022-08-17T02:31:45.107Z,14.42
2022-08-17T02:32:45.402Z,14.31
2022-08-17T02:34:04.377Z,14.42
2022-08-17T02:34:45.084Z,14.45
2022-08-17T02:35:45.077Z,14.36
2022-08-17T02:36:45.330Z,14.45
2022-08-17T02:37:51.902Z,14.31
2022-08-17T02:38:45.065Z,14.34
2022-08-17T02:39:45.248Z,14.42
2022-08-17T02:40:47.580Z,14.36
2022-08-17T02:41:45.047Z,14.31
2022-08-17T02:42:45.186Z,14.34
2022-08-17T02:43:45.309Z,14.31
2022-08-17T02:44:45.267Z,14.31
2022-08-17T02:45:45.249Z,14.33
2022-08-17T02:46:44.989Z,14.38
2022-08-17T02:47:45.241Z,14.33
2022-08-17T02:48:44.971Z,14.31
2022-08-17T02:49:56.793Z,14.28
2022-08-17T02:50:44.968Z,14.28
2022-08-17T02:51:45.208Z,14.3
2022-08-17T02:53:08.025Z,14.31
2022-08-17T02:53:45.184Z,14.24
2022-08-17T02:54:47.301Z,14.3
2022-08-17T02:55:45.179Z,14.27
2022-08-17T02:56:45.165Z,14.31
2022-08-17T02:57:45.159Z,14.27
2022-08-17T02:58:45.151Z,14.24
2022-08-17T02:59:51.444Z,14.27
2022-08-17T03:00:45.146Z,14.21
2022-08-17T03:01:45.429Z,14.26
2022-08-17T03:02:44.937Z,14.24
2022-08-17T03:03:44.854Z,14.21
2022-08-17T03:04:44.864Z,14.3
2022-08-17T03:05:44.587Z,14.3
2022-08-17T03:06:44.848Z,14.26
2022-08-17T03:07:45.080Z,14.27
2022-08-17T03:08:45.073Z,14.23
2022-08-17T03:09:44.812Z,14.26
2022-08-17T03:10:45.060Z,14.24
2022-08-17T03:11:45.053Z,14.21
2022-08-17T03:12:44.893Z,14.27
2022-08-17T03:13:44.768Z,14.26
2022-08-17T03:14:46.112Z,14.28
2022-08-17T03:15:48.423Z,14.27
2022-08-17T03:16:44.756Z,14.26
2022-08-17T03:17:45.001Z,14.27
2022-08-17T03:18:44.996Z,14.24
2022-08-17T03:19:48.147Z,14.31
2022-08-17T03:20:44.976Z,14.27
2022-08-17T03:21:44.966Z,14.27
2022-08-17T03:22:55.421Z,14.3
2022-08-17T03:23:44.696Z,14.3
2022-08-17T03:24:44.687Z,14.26
2022-08-17T03:25:47.883Z,14.3
2022-08-17T03:26:44.934Z,14.38
2022-08-17T03:27:53.793Z,14.41
2022-08-17T03:28:44.661Z,14.31
2022-08-17T03:29:44.905Z,14.39
2022-08-17T03:30:44.662Z,14.3
2022-08-17T03:31:44.886Z,14.3
2022-08-17T03:32:44.682Z,14.38
2022-08-17T03:49:55.082Z,14.15
2022-08-17T03:50:55.089Z,14.08
2022-08-17T03:51:54.802Z,14.15
2022-08-17T03:53:00.961Z,14.09
2022-08-17T03:53:54.782Z,14.09
2022-08-17T03:54:54.773Z,14.09
2022-08-17T03:55:55.018Z,14.15
2022-08-17T03:56:55.119Z,14.16
2022-08-17T03:57:55.347Z,14.05
2022-08-17T03:58:54.734Z,14.11
2022-08-17T03:59:54.728Z,14.09
2022-08-17T04:00:54.711Z,14.08
2022-08-17T04:01:57.791Z,14.09
2022-08-17T04:02:54.867Z,14.06
2022-08-17T04:03:54.684Z,14.02
2022-08-17T04:04:55.125Z,14.09
2022-08-17T04:05:54.667Z,14.02
2022-08-17T04:06:54.727Z,14.06
2022-08-17T04:07:54.656Z,14.09
2022-08-17T04:08:54.900Z,14.05
2022-08-17T04:09:54.640Z,14.11
2022-08-17T04:10:54.874Z,14.08
2022-08-17T04:11:54.611Z,14.12
2022-08-17T04:12:55.362Z,14.08
2022-08-17T04:13:54.860Z,14.2
2022-08-17T04:14:58.881Z,14.16
2022-08-17T04:15:54.830Z,14.11
2022-08-17T04:16:54.591Z,14.12
2022-08-17T04:17:54.569Z,14.09
2022-08-17T04:18:54.808Z,14.19
2022-08-17T04:19:54.624Z,14.3
2022-08-17T04:20:54.810Z,14.2
2022-08-17T04:21:54.541Z,14.3
2022-08-17T04:22:58.066Z,14.26
2022-08-17T04:23:54.771Z,14.28
2022-08-17T04:24:55.614Z,14.33
2022-08-17T04:25:54.793Z,14.34
2022-08-17T04:26:57.972Z,14.41
2022-08-17T04:27:54.486Z,14.41
2022-08-17T04:28:54.480Z,14.46
2022-08-17T04:30:00.190Z,14.42
2022-08-17T04:30:54.709Z,14.51
2022-08-17T04:31:54.447Z,14.57
2022-08-17T04:33:10.028Z,14.46
2022-08-17T04:33:54.177Z,14.51
2022-08-17T04:34:54.442Z,14.46
2022-08-17T04:35:54.695Z,14.48
2022-08-17T04:36:55.394Z,14.64
2022-08-17T04:37:54.687Z,14.64
2022-08-17T04:38:54.655Z,14.6
2022-08-17T04:39:54.855Z,14.63
2022-08-17T04:40:54.637Z,14.69
2022-08-17T04:41:54.115Z,14.66
2022-08-17T04:43:05.390Z,14.7
2022-08-17T04:43:54.612Z,14.74
2022-08-17T04:44:56.608Z,14.87
2022-08-17T04:46:00.899Z,14.86
2022-08-17T04:46:54.328Z,14.93
2022-08-17T04:47:54.574Z,14.85
2022-08-17T04:48:54.577Z,14.93
2022-08-17T04:49:54.565Z,14.95
2022-08-17T04:50:54.297Z,15
2022-08-17T04:52:04.648Z,15.02
2022-08-17T04:52:54.762Z,14.98
2022-08-17T04:53:59.598Z,15
2022-08-17T04:54:54.282Z,15.02
2022-08-17T04:55:54.518Z,15.1
2022-08-17T04:56:54.283Z,15.1
2022-08-17T04:57:54.512Z,15.2
2022-08-17T04:58:54.963Z,15.27
2022-08-17T04:59:54.234Z,15.3
2022-08-17T05:00:54.643Z,15.31
2022-08-17T05:01:54.504Z,15.4
2022-08-17T05:02:56.273Z,15.37
2022-08-17T05:03:54.216Z,15.4
2022-08-17T05:04:54.451Z,15.4
2022-08-17T05:05:54.562Z,15.41
2022-08-17T05:06:54.183Z,15.43
2022-08-17T05:07:54.171Z,15.43
2022-08-17T05:08:54.441Z,15.52
2022-08-17T05:09:54.159Z,15.58
2022-08-17T05:10:53.903Z,15.55
2022-08-17T05:11:55.201Z,15.62
2022-08-17T05:12:54.498Z,15.73
2022-08-17T05:13:54.135Z,15.73
2022-08-17T05:14:54.371Z,15.75
2022-08-17T05:15:54.375Z,15.75
2022-08-17T05:16:54.438Z,15.89
2022-08-17T05:17:54.102Z,15.8
2022-08-17T05:18:54.358Z,15.88
2022-08-17T05:19:56.578Z,15.99
2022-08-17T05:20:57.261Z,15.96
2022-08-17T05:21:55.737Z,16.04
2022-08-17T05:22:54.609Z,15.99
2022-08-17T05:24:01.906Z,16.1
2022-08-17T05:25:01.921Z,16.14
2022-08-17T05:25:56.798Z,16.17
2022-08-17T05:26:59.447Z,16.27
2022-08-17T05:27:56.700Z,16.27
2022-08-17T05:28:57.369Z,16.27
2022-08-17T05:29:56.429Z,16.33
2022-08-17T05:30:56.675Z,16.3
2022-08-17T05:31:56.787Z,16.37
2022-08-17T05:32:57.115Z,16.54
2022-08-17T05:33:56.397Z,16.51
2022-08-17T05:34:58.480Z,16.62
2022-08-17T05:35:56.386Z,16.69
2022-08-17T05:36:56.373Z,16.72
2022-08-17T05:37:59.090Z,16.73
2022-08-17T05:38:56.114Z,16.85
2022-08-17T05:39:56.658Z,16.91
2022-08-17T05:40:56.353Z,16.91
2022-08-17T05:41:56.348Z,16.95
2022-08-17T05:42:58.024Z,17
2022-08-17T05:44:00.966Z,17.07
2022-08-17T05:44:56.328Z,17.12
2022-08-17T05:46:00.979Z,17.13
2022-08-17T05:46:56.571Z,17.17
2022-08-17T05:47:56.558Z,17.24
2022-08-17T05:48:56.554Z,17.3
2022-08-17T05:49:59.403Z,17.21
2022-08-17T05:50:56.029Z,17.46
2022-08-17T05:51:56.535Z,17.38
2022-08-17T05:52:56.594Z,17.5
2022-08-17T05:53:56.527Z,17.62
2022-08-17T05:54:58.133Z,17.5
2022-08-17T05:55:56.262Z,17.62
2022-08-17T05:56:56.258Z,17.63
2022-08-17T05:58:02.494Z,17.69
2022-08-17T05:58:56.243Z,17.76
2022-08-17T05:59:56.230Z,17.71
2022-08-17T06:00:56.154Z,17.81
2022-08-17T06:01:55.972Z,17.84
2022-08-17T06:02:57.275Z,17.87
2022-08-17T06:03:58.168Z,17.95
2022-08-17T06:04:56.460Z,18.01
2022-08-17T06:05:56.454Z,18.05
2022-08-17T06:06:56.456Z,18.02
2022-08-17T06:07:56.185Z,18.23
2022-08-17T06:08:56.761Z,18.19
2022-08-17T06:09:56.434Z,18.24
2022-08-17T06:10:59.173Z,18.31
2022-08-17T06:12:01.254Z,18.31
2022-08-17T06:12:56.634Z,18.35
2022-08-17T06:13:56.161Z,18.29
2022-08-17T06:14:56.163Z,18.31
2022-08-17T06:15:56.394Z,18.41
2022-08-17T06:16:56.398Z,18.41
2022-08-17T06:17:56.391Z,18.47
2022-08-17T06:18:56.392Z,18.5
2022-08-17T06:19:56.136Z,18.51
2022-08-17T06:20:56.127Z,18.53
2022-08-17T06:21:56.388Z,18.61
2022-08-17T06:22:56.454Z,18.57
2022-08-17T06:23:59.083Z,18.66
2022-08-17T06:24:55.849Z,18.69
2022-08-17T06:25:56.198Z,18.65
2022-08-17T06:26:56.345Z,18.68
2022-08-17T06:27:58.514Z,18.74
2022-08-17T06:28:55.830Z,18.72
2022-08-17T06:29:56.083Z,18.69
2022-08-17T06:31:05.553Z,18.74
2022-08-17T06:31:56.333Z,18.75
2022-08-17T06:32:56.382Z,18.76
2022-08-17T06:33:56.315Z,18.78
2022-08-17T06:34:55.793Z,18.87
2022-08-17T06:35:58.331Z,18.97
2022-08-17T06:36:57.664Z,18.99
2022-08-17T06:37:56.321Z,18.96
2022-08-17T06:38:55.781Z,19.02
2022-08-17T06:39:56.531Z,19.07
2022-08-17T06:40:56.273Z,19.07
2022-08-17T06:41:55.768Z,19.25
2022-08-17T06:43:11.309Z,19.24
2022-08-17T06:43:56.266Z,19.27
2022-08-17T06:44:56.285Z,19.35
2022-08-17T06:45:56.253Z,19.46
2022-08-17T06:46:55.998Z,19.46
2022-08-17T06:47:56.245Z,19.5
2022-08-17T06:48:55.989Z,19.57
2022-08-17T06:49:59.699Z,19.79
2022-08-17T06:50:55.984Z,19.9
2022-08-17T06:51:55.974Z,20.37
2022-08-17T06:52:56.147Z,21.33
2022-08-17T06:53:56.668Z,22.34
2022-08-17T06:54:55.954Z,23.22
2022-08-17T06:55:55.956Z,24.03
2022-08-17T06:56:59.008Z,24.59
2022-08-17T06:57:55.946Z,25.09
2022-08-17T06:58:55.948Z,25.69
2022-08-17T07:00:00.702Z,26.34
2022-08-17T07:01:01.200Z,26.86
2022-08-17T07:01:56.242Z,27.46
2022-08-17T07:03:07.774Z,28.12
2022-08-17T07:03:55.941Z,28.58
2022-08-17T07:04:56.736Z,28.91
2022-08-17T07:05:56.809Z,28.92
2022-08-17T07:06:55.944Z,29.01
2022-08-17T07:07:55.937Z,29.15
2022-08-17T07:08:55.673Z,29.38
2022-08-17T07:09:55.703Z,29.72
2022-08-17T07:10:55.678Z,30.07
2022-08-17T07:11:56.689Z,30.34
2022-08-17T07:12:56.331Z,30.44
2022-08-17T07:13:56.699Z,30.66
2022-08-17T07:14:55.677Z,30.79
2022-08-17T07:16:01.599Z,30.73
2022-08-17T07:16:56.196Z,30.82
2022-08-17T07:17:55.676Z,31.18
2022-08-17T07:18:57.232Z,31.34
2022-08-17T07:19:59.997Z,31.53
2022-08-17T07:20:55.693Z,31.63
2022-08-17T07:21:55.937Z,31.86
2022-08-17T07:23:04.966Z,31.93
2022-08-17T07:23:56.204Z,32.03
2022-08-17T07:24:55.950Z,32.17
2022-08-17T07:25:56.208Z,32.53
2022-08-17T07:26:56.232Z,32.75
2022-08-17T07:27:56.354Z,32.96
2022-08-17T07:28:55.961Z,32.93
2022-08-17T07:29:55.964Z,33.01
2022-08-17T07:30:56.027Z,33.18
2022-08-17T07:31:57.781Z,33.03
2022-08-17T07:32:56.232Z,33.05
2022-08-17T07:33:56.233Z,32.98
2022-08-17T07:34:56.028Z,33.03
2022-08-17T07:35:55.982Z,33.32
2022-08-17T07:36:55.995Z,33.44
2022-08-17T07:37:56.375Z,33.21
2022-08-17T07:38:55.998Z,33.12
2022-08-17T07:40:20.183Z,33.02
2022-08-17T07:40:56.004Z,32.91
2022-08-17T07:42:02.146Z,32.87
2022-08-17T07:42:56.014Z,32.96
2022-08-17T07:43:56.019Z,33.06
2022-08-17T07:44:56.029Z,33.09
2022-08-17T07:45:56.287Z,32.91
2022-08-17T07:46:56.236Z,32.86
2022-08-17T07:47:56.595Z,32.69
2022-08-17T07:48:56.041Z,32.45
2022-08-17T07:49:56.040Z,32.24
2022-08-17T07:50:56.056Z,32.01
2022-08-17T07:51:56.599Z,31.68
2022-08-17T07:52:57.258Z,31.26
2022-08-17T07:54:13.401Z,30.86
2022-08-17T07:54:57.348Z,30.73
2022-08-17T07:55:57.339Z,30.49
2022-08-17T07:56:57.347Z,30.18
2022-08-17T07:57:57.251Z,29.91
2022-08-17T07:58:57.098Z,29.66
2022-08-17T07:59:58.654Z,29.48
2022-08-17T08:00:57.959Z,29.36
2022-08-17T08:02:02.143Z,29.14
2022-08-17T08:02:58.715Z,29.03
2022-08-17T08:03:58.095Z,28.85
2022-08-17T08:05:10.849Z,28.67
2022-08-17T08:05:57.125Z,28.51
2022-08-17T08:06:57.127Z,28.43
2022-08-17T08:07:57.665Z,28.3
2022-08-17T08:08:56.882Z,28.27
2022-08-17T08:09:57.164Z,28.24
2022-08-17T08:10:57.143Z,28.11
2022-08-17T08:11:57.142Z,28.02
2022-08-17T08:13:00.478Z,27.86
2022-08-17T08:13:57.403Z,27.87
2022-08-17T08:14:57.400Z,27.68
2022-08-17T08:15:59.244Z,27.69
2022-08-17T08:16:58.182Z,27.55
2022-08-17T08:17:58.103Z,27.65
2022-08-17T08:19:01.129Z,27.65
2022-08-17T08:19:57.923Z,27.66
2022-08-17T08:20:58.851Z,27.64
2022-08-17T08:21:57.919Z,27.64
2022-08-17T08:22:57.926Z,27.68
2022-08-17T08:23:57.933Z,27.69
2022-08-17T08:24:57.935Z,27.8
2022-08-17T08:25:58.356Z,27.87
2022-08-17T08:26:57.933Z,27.98
2022-08-17T08:27:57.931Z,27.99
2022-08-17T08:28:57.951Z,28.05
2022-08-17T08:29:58.192Z,28.05
2022-08-17T08:30:58.195Z,27.99
2022-08-17T08:31:57.966Z,27.93
2022-08-17T08:33:00.139Z,28.05
2022-08-17T08:33:58.001Z,28.05
2022-08-17T08:35:07.333Z,28.16
2022-08-17T08:35:58.224Z,28.18
2022-08-17T08:37:33.840Z,28.16
2022-08-17T08:37:58.066Z,28.24
2022-08-17T08:38:58.216Z,28.2
2022-08-17T08:39:57.865Z,28.16
2022-08-17T08:40:58.879Z,28.18
2022-08-17T08:41:58.226Z,27.96
2022-08-17T08:42:57.719Z,27.74
2022-08-17T08:43:57.726Z,27.48
2022-08-17T08:45:08.650Z,27.27
2022-08-17T08:45:58.234Z,27.26
2022-08-17T08:46:57.981Z,27.15
2022-08-17T08:47:58.592Z,27.06
2022-08-17T08:49:12.672Z,26.9
2022-08-17T08:50:37.099Z,26.79
2022-08-17T08:51:02.500Z,26.9
2022-08-17T08:52:02.002Z,26.99
2022-08-17T08:53:02.257Z,27.13
2022-08-17T08:54:02.278Z,27.21
2022-08-17T08:55:02.261Z,27.45
2022-08-17T08:56:02.257Z,27.59
2022-08-17T08:57:35.646Z,27.81
2022-08-17T08:58:02.004Z,27.72
2022-08-17T08:59:02.282Z,27.75
2022-08-17T09:00:03.123Z,27.86
2022-08-17T09:01:02.495Z,27.64
2022-08-17T09:02:02.401Z,27.42
2022-08-17T09:03:02.539Z,27.26
2022-08-17T09:04:27.835Z,27.05
2022-08-17T09:05:19.012Z,26.94
2022-08-17T09:06:02.283Z,26.9
2022-08-17T09:07:02.377Z,26.87
2022-08-17T09:08:02.063Z,26.76
2022-08-17T09:09:02.537Z,26.76
2022-08-17T09:10:03.833Z,26.84
2022-08-17T09:11:02.288Z,27.09
2022-08-17T09:12:07.633Z,27.45
2022-08-17T09:13:11.656Z,27.69
2022-08-17T09:14:03.532Z,27.69
2022-08-17T09:15:02.547Z,27.55
2022-08-17T09:16:03.237Z,27.51
2022-08-17T09:17:02.303Z,27.55
2022-08-17T09:19:07.397Z,27.91
2022-08-17T09:19:17.975Z,27.84
2022-08-17T09:20:32.128Z,27.98
2022-08-17T09:21:20.700Z,28.03
2022-08-17T09:22:18.229Z,28.24
2022-08-17T09:23:17.993Z,28.23
2022-08-17T09:24:24.973Z,28.11
2022-08-17T09:25:17.995Z,27.98
2022-08-17T09:26:17.734Z,28.05
2022-08-17T09:27:18.266Z,28.06
2022-08-17T09:28:18.278Z,28.05
2022-08-17T09:29:18.258Z,27.93
2022-08-17T09:30:18.007Z,27.76
2022-08-17T09:31:18.257Z,27.74
2022-08-17T09:32:18.424Z,27.91
2022-08-17T09:33:18.004Z,28.02
2022-08-17T09:34:19.949Z,28.08
2022-08-17T09:35:18.003Z,28.26
2022-08-17T09:36:18.267Z,28.2
2022-08-17T09:37:18.272Z,28.36
2022-08-17T09:38:18.266Z,28.58
2022-08-17T09:39:17.765Z,28.72
2022-08-17T09:40:18.372Z,28.83
2022-08-17T09:41:17.772Z,28.86
2022-08-17T09:42:18.309Z,28.98
2022-08-17T09:43:18.032Z,29.1
2022-08-17T09:44:28.094Z,29.03
2022-08-17T09:45:18.281Z,29.11
2022-08-17T09:46:17.780Z,29.05
2022-08-17T09:47:18.038Z,29.06
2022-08-17T09:48:20.286Z,29.24
2022-08-17T09:49:21.900Z,29.29
2022-08-17T09:50:18.161Z,29.3
2022-08-17T09:51:18.296Z,29.3
2022-08-17T09:52:20.156Z,29.32
2022-08-17T09:53:18.302Z,29.35
2022-08-17T09:54:44.447Z,29.28
2022-08-17T09:55:18.316Z,29.17
2022-08-17T09:56:18.307Z,29.1
2022-08-17T09:57:34.856Z,28.9
2022-08-17T09:58:18.061Z,28.79
2022-08-17T09:59:17.816Z,28.65
2022-08-17T10:00:18.470Z,28.43
2022-08-17T10:01:18.171Z,28.36
2022-08-17T10:02:18.550Z,28.2
2022-08-17T10:03:18.082Z,28.09
2022-08-17T10:04:24.874Z,27.86
2022-08-17T10:05:18.361Z,28.01
2022-08-17T10:06:24.362Z,28.05
2022-08-17T10:07:18.344Z,28.24
2022-08-17T10:08:17.832Z,28.35
2022-08-17T10:09:18.355Z,28.35
2022-08-17T10:10:18.790Z,28.39
2022-08-17T10:11:18.644Z,28.18
2022-08-17T10:12:21.719Z,28.18
2022-08-17T10:13:20.456Z,28.16
2022-08-17T10:14:46.723Z,28.38
2022-08-17T10:15:19.895Z,28.57
2022-08-17T10:16:18.360Z,28.8
2022-08-17T10:17:18.110Z,28.91
2022-08-17T10:18:18.110Z,28.79
2022-08-17T10:19:17.877Z,28.82
2022-08-17T10:20:17.907Z,28.9
2022-08-17T10:21:18.136Z,28.86
2022-08-17T10:22:40.312Z,28.64
2022-08-17T10:23:18.387Z,28.63
2022-08-17T10:24:18.121Z,28.73
2022-08-17T10:26:00.027Z,28.91
2022-08-17T10:26:18.137Z,28.97
2022-08-17T10:27:18.386Z,29.14
2022-08-17T10:28:30.365Z,29.6
2022-08-17T10:29:18.139Z,29.75
2022-08-17T10:30:18.561Z,29.87
2022-08-17T10:31:48.137Z,30.03
2022-08-17T10:32:18.412Z,30.13
2022-08-17T10:33:18.582Z,30.29
2022-08-17T10:34:18.412Z,30.45
2022-08-17T10:35:18.416Z,30.52
2022-08-17T10:36:18.421Z,30.71
2022-08-17T10:37:17.906Z,30.84
2022-08-17T10:38:18.417Z,30.78
2022-08-17T10:39:18.174Z,30.69
2022-08-17T10:40:18.531Z,30.4
2022-08-17T10:41:18.433Z,30.47
2022-08-17T10:42:35.671Z,30.73
2022-08-17T10:43:18.443Z,30.69
2022-08-17T10:44:45.383Z,30.64
2022-08-17T10:45:18.198Z,30.47
2022-08-17T10:46:35.601Z,30.21
2022-08-17T10:47:18.196Z,30.21
2022-08-17T10:48:18.443Z,29.98
2022-08-17T10:49:18.459Z,29.6
2022-08-17T10:50:18.207Z,29.42
2022-08-17T10:51:18.488Z,29.45
2022-08-17T10:52:18.574Z,29.39
2022-08-17T10:53:22.457Z,29.33
2022-08-17T10:54:18.228Z,29.23
2022-08-17T10:55:17.972Z,29.06
2022-08-17T10:56:18.526Z,29.08
2022-08-17T10:57:18.236Z,29.06
2022-08-17T10:58:18.239Z,29.05
2022-08-17T10:59:18.500Z,29.08
2022-08-17T11:00:18.278Z,29.06
2022-08-17T11:01:18.458Z,29.15
2022-08-17T11:02:18.044Z,29.11
2022-08-17T11:03:18.272Z,28.97
2022-08-17T11:04:18.733Z,28.91
2022-08-17T11:05:18.263Z,28.9
2022-08-17T11:06:18.276Z,29.13
2022-08-17T11:07:18.024Z,29.39
2022-08-17T11:08:19.558Z,29.65
2022-08-17T11:09:18.555Z,29.77
2022-08-17T11:10:18.033Z,29.85
2022-08-17T11:11:18.542Z,30.06
2022-08-17T11:12:18.734Z,30.13
2022-08-17T11:13:18.315Z,30.19
2022-08-17T11:14:18.302Z,30.37
2022-08-17T11:15:19.164Z,30.49
2022-08-17T11:16:19.164Z,30.6
2022-08-17T11:17:19.434Z,30.6
2022-08-17T11:18:19.455Z,30.64
2022-08-17T11:19:18.928Z,30.69
2022-08-17T11:20:19.466Z,30.69
2022-08-17T11:21:19.189Z,30.64
2022-08-17T11:22:19.993Z,30.7
2022-08-17T11:23:19.209Z,30.69
2022-08-17T11:24:19.215Z,30.79
2022-08-17T11:25:19.208Z,30.84
2022-08-17T11:26:18.970Z,30.99
2022-08-17T11:27:19.477Z,30.86
2022-08-17T11:28:20.288Z,30.67
2022-08-17T11:29:21.222Z,30.44
2022-08-17T11:30:19.546Z,30.32
2022-08-17T11:31:19.787Z,30.29
2022-08-17T11:32:19.329Z,30.21
2022-08-17T11:33:24.991Z,30.06
2022-08-17T11:34:20.494Z,30.02
2022-08-17T11:35:19.497Z,29.98
2022-08-17T11:36:19.503Z,30.03
2022-08-17T11:37:19.519Z,30.11
2022-08-17T11:38:21.116Z,30.26
2022-08-17T11:39:19.017Z,30.44
2022-08-17T11:40:19.627Z,30.54
2022-08-17T11:41:19.272Z,30.6
2022-08-17T11:42:19.529Z,30.54
2022-08-17T11:43:19.018Z,30.66
2022-08-17T11:44:19.023Z,30.75
2022-08-17T11:45:36.936Z,30.88
2022-08-17T11:46:19.559Z,30.93
2022-08-17T11:47:19.302Z,31.06
2022-08-17T11:48:33.241Z,31.04
2022-08-17T11:49:19.560Z,31.03
2022-08-17T11:50:20.329Z,31.12
2022-08-17T11:51:19.317Z,31.16
2022-08-17T11:52:19.578Z,31.15
2022-08-17T11:53:19.524Z,31.25
2022-08-17T11:54:37.100Z,31.33
2022-08-17T11:55:45.411Z,31.34
2022-08-17T11:56:19.597Z,31.41
2022-08-17T11:57:19.337Z,31.55
2022-08-17T11:58:19.349Z,31.59
2022-08-17T11:59:19.354Z,31.59
2022-08-17T12:00:19.097Z,31.63
2022-08-17T12:01:20.799Z,31.68
2022-08-17T12:02:19.623Z,31.67
2022-08-17T12:03:19.233Z,31.65
2022-08-17T12:04:19.484Z,31.55
2022-08-17T12:05:19.636Z,31.53
2022-08-17T12:06:19.378Z,31.5
2022-08-17T12:07:19.132Z,31.4
2022-08-17T12:08:19.145Z,31.4
2022-08-17T12:09:19.152Z,31.45
2022-08-17T12:10:19.401Z,31.49
2022-08-17T12:12:12.324Z,31.53
2022-08-17T12:12:23.665Z,31.47
2022-08-17T12:13:23.675Z,31.33
2022-08-17T12:15:27.699Z,31.08
2022-08-17T12:16:27.971Z,30.85
2022-08-17T12:17:58.060Z,30.71
2022-08-17T12:18:27.457Z,30.63
2022-08-17T12:19:27.725Z,30.63
2022-08-17T12:20:27.736Z,30.6
2022-08-17T12:21:27.989Z,30.7
2022-08-17T12:22:27.744Z,30.77
2022-08-17T12:23:27.741Z,30.86
2022-08-17T12:24:28.004Z,30.85
2022-08-17T12:25:28.003Z,30.99
2022-08-17T12:26:27.510Z,31
2022-08-17T12:28:10.835Z,31.03
2022-08-17T12:28:28.628Z,31.15
2022-08-17T12:29:41.257Z,31.08
2022-08-17T12:30:27.533Z,31.06
2022-08-17T12:31:27.787Z,31.13
2022-08-17T12:32:27.783Z,31.04
2022-08-17T12:33:32.294Z,31.19
2022-08-17T12:34:27.799Z,31.21
2022-08-17T12:35:27.806Z,31.25
2022-08-17T12:36:27.802Z,31.31
2022-08-17T12:37:28.072Z,31.38
2022-08-17T12:38:37.337Z,31.38
2022-08-17T12:39:36.330Z,31.43
2022-08-17T12:40:27.829Z,31.4
2022-08-17T12:41:28.217Z,31.52
2022-08-17T12:42:27.841Z,31.58
2022-08-17T12:43:27.584Z,31.6
2022-08-17T12:44:27.597Z,31.53
2022-08-17T12:45:27.856Z,31.43
2022-08-17T12:46:30.219Z,31.4
2022-08-17T12:47:31.930Z,31.33
2022-08-17T12:48:27.621Z,31.31
2022-08-17T12:49:28.140Z,31.36
2022-08-17T12:50:34.040Z,31.33
2022-08-17T12:51:28.148Z,31.3
2022-08-17T12:52:28.150Z,31.33
2022-08-17T12:53:27.898Z,31.41
2022-08-17T12:54:27.909Z,31.49
2022-08-17T12:55:35.877Z,31.23
2022-08-17T12:56:28.319Z,31.16
2022-08-17T12:57:28.185Z,31
2022-08-17T12:58:27.922Z,30.94
2022-08-17T12:59:35.077Z,31.03
2022-08-17T13:00:27.929Z,30.96
2022-08-17T13:01:28.221Z,30.91
2022-08-17T13:02:27.955Z,30.99
2022-08-17T13:03:29.901Z,30.97
2022-08-17T13:04:32.306Z,31
2022-08-17T13:05:27.956Z,31.04
2022-08-17T13:06:27.706Z,31.04
2022-08-17T13:07:27.709Z,31.07
2022-08-17T13:08:28.222Z,31.07
2022-08-17T13:09:42.782Z,31.08
2022-08-17T13:10:35.254Z,31.1
2022-08-17T13:11:27.733Z,31.07
2022-08-17T13:12:27.994Z,31.04
2022-08-17T13:13:28.011Z,31.13
2022-08-17T13:14:28.594Z,31.18